Time;durP1;ratioP1;P1;durP2;ratioP2;P2;SDS_P1;SDS_P2;PMS_P1;PMS_P2;Temp;Humidity;BMP_temperature;BMP_pressure;BME280_temperature;BME280_humidity;BME280_pressure;Samples;Min_cycle;Max_cycle;Signal;HPM_P1;HPM_P2
2023/02/16 00:01:56;;;;;;;62.63;52.05;;;5.70;99.90;;;;;;5008768;28;20050;-72
2023/02/16 00:04:25;;;;;;;61.28;53.67;;;5.70;99.90;;;;;;5013492;28;20048;-72
2023/02/16 00:06:52;;;;;;;63.20;53.00;;;5.70;99.90;;;;;;4992561;28;20464;-72
2023/02/16 00:09:19;;;;;;;64.38;54.08;;;5.60;99.90;;;;;;4971634;28;20069;-72
2023/02/16 00:14:51;;;;;;;62.50;52.30;;;5.60;99.90;;;;;;4906987;29;20169;-72
2023/02/16 00:17:16;;;;;;;67.90;54.47;;;5.60;99.90;;;;;;4903713;29;20043;-72
2023/02/16 00:19:42;;;;;;;62.92;54.33;;;5.60;99.90;;;;;;4962502;28;20509;-72
2023/02/16 00:22:10;;;;;;;64.10;53.17;;;5.60;99.90;;;;;;4967305;28;20067;-72
2023/02/16 00:24:36;;;;;;;63.60;53.58;;;5.60;99.90;;;;;;4978986;28;20159;-71
2023/02/16 00:27:02;;;;;;;63.75;53.72;;;5.60;99.90;;;;;;4972580;28;20040;-72
2023/02/16 00:29:33;;;;;;;61.63;53.70;;;5.60;99.90;;;;;;4971553;28;20139;-71
2023/02/16 00:32:04;;;;;;;61.50;53.20;;;5.60;99.90;;;;;;5011820;28;20124;-71
2023/02/16 00:34:36;;;;;;;59.88;52.13;;;5.60;99.90;;;;;;4993997;28;20041;-71
2023/02/16 00:37:14;;;;;;;60.15;52.25;;;5.60;99.90;;;;;;5004979;28;20053;-71
2023/02/16 00:39:43;;;;;;;62.03;53.67;;;5.50;99.90;;;;;;5013516;28;20056;-72
2023/02/16 00:42:31;;;;;;;60.38;52.25;;;5.50;99.90;;;;;;5010430;28;20536;-71
2023/02/16 00:44:58;;;;;;;63.00;53.72;;;5.50;99.90;;;;;;5012414;28;20096;-72
2023/02/16 00:47:37;;;;;;;63.10;52.55;;;5.50;99.90;;;;;;4995885;28;20076;-72
2023/02/16 00:50:16;;;;;;;65.75;55.05;;;5.40;99.90;;;;;;5007777;28;20092;-72
2023/02/16 00:52:44;;;;;;;59.83;53.30;;;5.40;99.90;;;;;;5008774;28;20514;-72
2023/02/16 00:55:19;;;;;;;61.42;52.65;;;5.40;99.90;;;;;;5012560;28;20045;-72
2023/02/16 00:58:06;;;;;;;61.05;53.67;;;5.40;99.90;;;;;;5013952;28;20046;-72
2023/02/16 01:00:38;;;;;;;60.95;52.42;;;5.40;99.90;;;;;;4999775;28;20080;-72
2023/02/16 01:03:11;;;;;;;58.97;52.42;;;5.40;99.90;;;;;;4992345;28;20590;-72
2023/02/16 01:05:37;;;;;;;64.85;54.42;;;5.40;99.90;;;;;;5017039;28;20598;-72
2023/02/16 01:11:08;;;;;;;62.25;54.55;;;5.40;99.90;;;;;;5013708;28;20516;-72
2023/02/16 01:13:48;;;;;;;59.17;52.03;;;5.40;99.90;;;;;;5000480;28;20480;-72
2023/02/16 01:16:25;;;;;;;60.42;52.20;;;5.40;99.90;;;;;;4997040;28;20045;-72
2023/02/16 01:18:51;;;;;;;60.20;52.00;;;5.30;99.90;;;;;;5014274;28;20061;-71
2023/02/16 01:21:20;;;;;;;62.58;54.33;;;5.40;99.90;;;;;;5011698;28;20132;-72
2023/02/16 01:23:46;;;;;;;59.30;52.17;;;5.40;99.90;;;;;;5014937;28;20447;-72
2023/02/16 01:26:15;;;;;;;63.60;55.33;;;5.40;99.90;;;;;;5009059;28;20751;-72
2023/02/16 01:28:42;;;;;;;63.60;54.60;;;5.40;99.90;;;;;;4993220;28;20574;-72
2023/02/16 01:31:15;;;;;;;63.05;54.15;;;5.30;99.90;;;;;;5006619;28;20056;-72
2023/02/16 01:33:42;;;;;;;61.80;54.53;;;5.30;99.90;;;;;;4996814;28;20655;-71
2023/02/16 01:36:19;;;;;;;62.15;52.58;;;5.30;99.90;;;;;;5008922;28;20053;-72
2023/02/16 01:38:44;;;;;;;63.63;54.78;;;5.30;99.90;;;;;;5013257;28;20312;-72
2023/02/16 01:41:48;;;;;;;63.10;55.17;;;5.30;99.90;;;;;;4996118;28;20934;-72
2023/02/16 01:44:27;;;;;;;65.40;55.85;;;5.30;99.90;;;;;;5011695;28;20559;-72
2023/02/16 01:47:02;;;;;;;66.30;54.65;;;5.30;99.90;;;;;;4996774;28;20057;-78
2023/02/16 01:49:27;;;;;;;66.30;56.22;;;5.30;99.90;;;;;;5004859;28;20759;-78
2023/02/16 01:52:27;;;;;;;65.32;55.42;;;5.30;99.90;;;;;;4980079;28;20033;-78
2023/02/16 01:55:06;;;;;;;63.97;55.60;;;5.30;99.90;;;;;;5008436;28;20052;-78
2023/02/16 01:58:13;;;;;;;64.97;57.45;;;5.20;99.90;;;;;;5013146;28;20544;-78
2023/02/16 02:00:48;;;;;;;66.75;56.30;;;5.20;99.90;;;;;;4999297;28;20049;-78
2023/02/16 02:06:02;;;;;;;63.88;55.80;;;5.10;99.90;;;;;;5009045;28;20053;-78
2023/02/16 02:08:50;;;;;;;63.13;55.72;;;5.20;99.90;;;;;;4980160;28;20111;-78
2023/02/16 02:11:32;;;;;;;65.05;57.75;;;5.20;99.90;;;;;;5008691;28;20042;-78
2023/02/16 02:14:02;;;;;;;66.35;57.80;;;5.20;99.90;;;;;;5007559;28;20038;-72
2023/02/16 02:16:27;;;;;;;65.35;58.17;;;5.20;99.90;;;;;;4986683;28;20053;-72
2023/02/16 02:18:53;;;;;;;67.95;59.50;;;5.20;99.90;;;;;;4987513;28;20085;-72
2023/02/16 02:24:44;;;;;;;68.10;58.15;;;5.30;99.90;;;;;;5009110;28;20135;-72
2023/02/16 02:27:24;;;;;;;70.50;60.00;;;5.20;99.90;;;;;;5014130;28;20044;-72
2023/02/16 02:29:58;;;;;;;;;;;5.20;99.90;;;;;;5004699;28;20052;-72
2023/02/16 02:32:40;;;;;;;70.45;60.25;;;5.20;99.90;;;;;;5012514;28;20470;-72
2023/02/16 02:35:25;;;;;;;69.03;59.42;;;5.20;99.90;;;;;;5008846;28;20049;-71
2023/02/16 02:38:13;;;;;;;72.47;62.72;;;5.20;99.90;;;;;;5004203;28;20057;-72
2023/02/16 02:40:39;;;;;;;66.60;57.70;;;5.20;99.90;;;;;;5019575;28;20103;-71
2023/02/16 02:43:04;;;;;;;70.65;61.38;;;5.20;99.90;;;;;;5012143;28;20053;-72
2023/02/16 02:45:40;;;;;;;66.50;57.15;;;5.20;99.90;;;;;;5008183;28;20069;-72
2023/02/16 02:48:06;;;;;;;68.15;60.83;;;5.20;99.90;;;;;;5027896;28;21142;-71
2023/02/16 02:50:40;;;;;;;66.55;58.92;;;5.20;99.90;;;;;;4975955;28;20033;-72
2023/02/16 02:53:13;;;;;;;68.80;59.85;;;5.10;99.90;;;;;;4999792;28;20087;-72
2023/02/16 03:01:19;;;;;;;72.80;59.83;;;5.10;99.90;;;;;;5014110;28;20053;-71
2023/02/16 03:03:52;;;;;;;67.72;60.30;;;5.10;99.90;;;;;;5007284;28;20053;-71
2023/02/16 03:06:32;;;;;;;71.85;63.38;;;5.10;99.90;;;;;;5015722;28;20072;-72
2023/02/16 03:09:11;;;;;;;73.45;63.30;;;5.10;99.90;;;;;;5000318;28;20722;-72
2023/02/16 03:14:27;;;;;;;70.72;62.72;;;5.10;99.90;;;;;;5015929;28;20683;-72
2023/02/16 03:30:57;;;;;;;70.05;62.15;;;5.20;99.90;;;;;;5008555;28;20049;-72
2023/02/16 03:33:24;;;;;;;;;;;5.20;99.90;;;;;;5011976;28;20531;-71
2023/02/16 03:35:51;;;;;;;73.18;63.05;;;5.20;99.90;;;;;;5011304;28;19925;-72
2023/02/16 03:38:17;;;;;;;73.93;63.60;;;5.20;99.90;;;;;;5008973;28;20049;-72
2023/02/16 03:40:44;;;;;;;75.88;66.07;;;5.30;99.90;;;;;;5010440;28;20045;-72
2023/02/16 03:43:09;;;;;;;71.68;63.78;;;5.30;99.90;;;;;;5029049;28;20057;-72
2023/02/16 03:45:39;;;;;;;71.40;61.03;;;5.30;99.90;;;;;;5009634;28;20578;-72
2023/02/16 03:48:05;;;;;;;74.00;64.53;;;5.40;99.90;;;;;;5014487;28;20125;-72
2023/02/16 03:50:31;;;;;;;73.18;62.63;;;5.40;99.90;;;;;;5000741;28;20167;-72
2023/02/16 03:53:05;;;;;;;71.97;64.15;;;5.40;99.90;;;;;;5018115;28;20119;-72
2023/02/16 03:55:42;;;;;;;69.57;60.58;;;5.50;99.90;;;;;;5006685;28;20038;-72
2023/02/16 03:58:13;;;;;;;71.22;63.45;;;5.50;99.90;;;;;;5009031;28;20100;-72
2023/02/16 04:00:40;;;;;;;69.55;61.13;;;5.50;99.90;;;;;;5007157;28;20042;-72
2023/02/16 04:03:07;;;;;;;71.85;61.22;;;5.60;99.90;;;;;;5005706;28;20687;-72
2023/02/16 04:05:33;;;;;;;67.40;59.35;;;5.50;99.90;;;;;;5005740;28;20042;-73
2023/02/16 04:07:59;;;;;;;68.53;61.05;;;5.60;99.90;;;;;;5014809;28;20048;-72
2023/02/16 04:10:25;;;;;;;71.53;62.10;;;5.60;99.90;;;;;;5013057;28;20037;-72
2023/02/16 04:12:51;;;;;;;72.30;61.28;;;5.60;99.90;;;;;;5011769;28;20428;-72
2023/02/16 04:15:20;;;;;;;74.70;62.95;;;5.70;99.90;;;;;;5012730;28;20037;-72
2023/02/16 04:17:46;;;;;;;68.88;60.63;;;5.70;99.90;;;;;;5009069;28;20041;-72
2023/02/16 04:20:18;;;;;;;71.82;61.83;;;5.60;99.90;;;;;;5003266;28;20591;-72
2023/02/16 04:22:44;;;;;;;73.88;61.03;;;5.70;99.90;;;;;;5004604;28;20421;-72
2023/02/16 04:25:11;;;;;;;72.63;62.00;;;5.70;99.90;;;;;;5007738;28;20037;-72
2023/02/16 04:27:37;;;;;;;72.78;61.35;;;5.70;99.90;;;;;;5010802;28;20121;-72
2023/02/16 04:30:05;;;;;;;71.57;61.90;;;5.70;99.90;;;;;;5007802;28;20033;-71
2023/02/16 04:32:31;;;;;;;72.57;62.70;;;5.70;99.90;;;;;;5009464;28;20038;-72
2023/02/16 04:34:57;;;;;;;70.38;62.67;;;5.70;99.90;;;;;;5012694;28;20091;-72
2023/02/16 04:37:23;;;;;;;72.03;62.17;;;5.70;99.90;;;;;;5017606;28;20439;-72
2023/02/16 04:39:52;;;;;;;72.68;62.88;;;5.70;99.90;;;;;;4998017;28;20049;-71
2023/02/16 04:42:17;;;;;;;68.65;60.65;;;5.70;99.90;;;;;;5016396;28;20040;-72
2023/02/16 04:44:43;;;;;;;70.63;62.53;;;5.80;99.90;;;;;;5007913;28;20062;-72
2023/02/16 04:47:09;;;;;;;72.05;62.50;;;5.70;99.90;;;;;;4996622;28;20111;-72
2023/02/16 04:49:35;;;;;;;71.68;63.35;;;5.70;99.90;;;;;;5013621;28;20041;-72
2023/02/16 04:52:02;;;;;;;71.00;61.17;;;5.70;99.90;;;;;;5007946;28;20508;-72
2023/02/16 04:54:32;;;;;;;72.00;62.20;;;5.70;99.90;;;;;;5006652;28;20330;-72
2023/02/16 04:56:58;;;;;;;71.65;63.38;;;5.70;99.90;;;;;;5005180;28;20713;-72
2023/02/16 04:59:27;;;;;;;70.20;62.58;;;5.80;99.90;;;;;;5012323;28;20112;-72
2023/02/16 05:01:57;;;;;;;69.10;61.03;;;5.80;99.90;;;;;;5014224;28;20539;-72
2023/02/16 05:04:23;;;;;;;73.75;61.80;;;5.80;99.90;;;;;;5011535;28;20081;-72
2023/02/16 05:06:49;;;;;;;72.55;62.03;;;5.80;99.90;;;;;;5023932;28;20053;-72
2023/02/16 05:09:15;;;;;;;72.40;63.85;;;5.80;99.90;;;;;;5020858;28;20041;-72
2023/02/16 05:14:40;;;;;;;72.97;63.20;;;5.90;99.90;;;;;;5013050;28;20041;-72
2023/02/16 05:17:25;;;;;;;68.40;60.90;;;5.90;99.90;;;;;;5014415;28;20219;-72
2023/02/16 05:19:56;;;;;;;71.20;61.45;;;5.90;99.90;;;;;;5012231;28;20597;-72
2023/02/16 05:22:23;;;;;;;68.78;59.75;;;5.90;99.90;;;;;;5004950;28;20298;-72
2023/02/16 05:24:49;;;;;;;73.20;63.63;;;5.90;99.90;;;;;;5020277;28;20403;-72
2023/02/16 05:27:21;;;;;;;74.25;62.55;;;5.90;99.90;;;;;;5016288;28;20143;-71
2023/02/16 05:29:47;;;;;;;68.50;61.00;;;5.90;99.90;;;;;;5031614;28;20524;-72
2023/02/16 05:32:13;;;;;;;69.45;60.40;;;5.90;99.90;;;;;;5024069;28;20052;-71
2023/02/16 05:34:39;;;;;;;71.72;61.63;;;5.90;99.90;;;;;;5025514;28;20037;-72
2023/02/16 05:37:05;;;;;;;70.47;61.53;;;5.90;99.90;;;;;;5020942;28;20120;-72
2023/02/16 05:39:31;;;;;;;74.47;63.42;;;5.90;99.90;;;;;;5019663;28;20136;-73
2023/02/16 05:41:57;;;;;;;68.18;60.88;;;5.90;99.90;;;;;;5021251;28;20038;-72
2023/02/16 05:44:23;;;;;;;70.63;62.53;;;5.90;99.90;;;;;;5028468;28;20551;-72
2023/02/16 05:46:48;;;;;;;70.22;61.90;;;5.90;99.90;;;;;;5024668;28;20331;-72
2023/02/16 05:49:15;;;;;;;71.47;62.65;;;5.90;99.90;;;;;;5012614;28;20681;-71
2023/02/16 05:51:41;;;;;;;74.68;63.75;;;5.90;99.90;;;;;;5023861;28;20061;-71
2023/02/16 05:54:09;;;;;;;73.70;63.85;;;5.90;99.90;;;;;;5021412;28;20095;-71
2023/02/16 05:56:35;;;;;;;71.93;62.67;;;5.90;99.90;;;;;;5018690;28;20077;-71
2023/02/16 05:59:04;;;;;;;68.63;60.97;;;5.90;99.90;;;;;;5022299;28;20451;-72
2023/02/16 06:01:30;;;;;;;70.00;62.05;;;5.90;99.90;;;;;;5017835;28;20041;-72
2023/02/16 06:03:56;;;;;;;70.72;62.35;;;5.90;99.90;;;;;;5017583;28;20053;-72
2023/02/16 06:06:21;;;;;;;71.20;62.78;;;5.90;99.90;;;;;;5015766;28;20377;-72
2023/02/16 06:08:48;;;;;;;71.32;63.42;;;5.90;99.90;;;;;;5012775;28;20056;-70
2023/02/16 06:11:34;;;;;;;73.20;62.63;;;5.90;99.90;;;;;;5010735;28;20041;-71
2023/02/16 06:14:01;;;;;;;69.97;62.15;;;6.00;99.90;;;;;;5009511;28;20056;-71
2023/02/16 06:16:30;;;;;;;68.93;61.55;;;5.90;99.90;;;;;;5009805;28;20049;-71
2023/02/16 06:18:56;;;;;;;71.60;62.88;;;5.90;99.90;;;;;;5012902;28;20131;-72
2023/02/16 06:21:23;;;;;;;71.38;63.40;;;6.00;99.90;;;;;;5008544;28;20170;-74
2023/02/16 06:23:48;;;;;;;71.95;64.13;;;5.90;99.90;;;;;;5013738;28;20050;-73
2023/02/16 06:26:15;;;;;;;73.03;63.78;;;6.00;99.90;;;;;;5012691;28;20426;-73
2023/02/16 06:28:41;;;;;;;73.45;64.28;;;6.00;99.90;;;;;;5009681;28;20041;-73
2023/02/16 06:31:07;;;;;;;72.13;62.97;;;6.00;99.90;;;;;;5010707;28;20079;-73
2023/02/16 06:33:33;;;;;;;72.15;64.25;;;6.00;99.90;;;;;;5005145;28;20072;-73
2023/02/16 06:35:58;;;;;;;69.93;62.38;;;6.00;99.90;;;;;;5000290;28;20764;-73
2023/02/16 06:38:25;;;;;;;71.47;63.70;;;6.00;99.90;;;;;;5012471;28;20034;-73
2023/02/16 06:40:52;;;;;;;73.10;65.07;;;6.00;99.90;;;;;;5016165;28;20046;-73
2023/02/16 06:43:18;;;;;;;74.18;66.00;;;6.00;99.90;;;;;;5006972;28;20152;-73
2023/02/16 06:45:44;;;;;;;74.75;65.85;;;6.00;99.90;;;;;;5011703;28;20104;-73
2023/02/16 06:48:09;;;;;;;74.85;65.30;;;6.00;99.90;;;;;;5010289;28;20435;-72
2023/02/16 06:50:35;;;;;;;72.00;63.65;;;6.00;99.90;;;;;;5014124;28;20040;-73
2023/02/16 06:53:01;;;;;;;71.13;62.92;;;6.00;99.90;;;;;;5007737;28;20177;-73
2023/02/16 06:55:27;;;;;;;71.15;63.30;;;6.00;99.90;;;;;;5009804;28;20299;-74
2023/02/16 06:57:53;;;;;;;71.60;63.80;;;6.00;99.90;;;;;;5007104;28;20530;-74
2023/02/16 07:00:19;;;;;;;72.55;64.65;;;6.00;99.90;;;;;;5011754;28;20249;-74
2023/02/16 07:02:45;;;;;;;70.28;62.58;;;6.00;99.90;;;;;;5011605;28;20132;-74
2023/02/16 07:05:11;;;;;;;73.28;65.30;;;6.10;99.90;;;;;;5010185;28;20033;-73
2023/02/16 07:07:37;;;;;;;74.50;66.50;;;6.10;99.90;;;;;;5009274;28;20191;-74
2023/02/16 07:10:03;;;;;;;72.47;64.57;;;6.00;99.90;;;;;;5005093;28;20042;-74
2023/02/16 07:12:29;;;;;;;73.18;64.80;;;6.10;99.90;;;;;;5012787;28;20045;-74
2023/02/16 07:14:57;;;;;;;73.32;65.35;;;6.10;99.90;;;;;;5004927;28;20037;-74
2023/02/16 07:17:23;;;;;;;69.72;62.22;;;6.10;99.90;;;;;;5007624;28;20045;-74
2023/02/16 07:19:49;;;;;;;72.40;64.50;;;6.10;99.90;;;;;;5012589;28;20570;-74
2023/02/16 07:22:16;;;;;;;75.25;66.15;;;6.10;99.90;;;;;;5013777;28;20053;-74
2023/02/16 07:24:42;;;;;;;71.20;63.65;;;6.20;99.90;;;;;;5005119;28;20067;-74
2023/02/16 07:27:08;;;;;;;75.20;66.93;;;6.20;99.90;;;;;;5012308;28;20488;-74
2023/02/16 07:29:34;;;;;;;72.85;64.85;;;6.20;99.90;;;;;;5002439;28;20085;-74
2023/02/16 07:32:01;;;;;;;72.63;64.82;;;6.20;99.90;;;;;;5004310;28;20073;-74
2023/02/16 07:34:27;;;;;;;73.05;64.82;;;6.20;99.90;;;;;;5009586;28;20052;-74
2023/02/16 07:36:52;;;;;;;73.18;65.20;;;6.30;99.90;;;;;;5009000;28;20041;-74
2023/02/16 07:39:18;;;;;;;70.78;63.08;;;6.30;99.90;;;;;;5009762;28;20100;-74
2023/02/16 07:41:44;;;;;;;71.78;63.45;;;6.30;99.90;;;;;;5010214;28;20041;-74
2023/02/16 07:44:13;;;;;;;71.97;64.10;;;6.40;99.90;;;;;;4996117;28;20423;-74
2023/02/16 07:46:38;;;;;;;71.60;63.83;;;6.40;99.90;;;;;;5007903;28;20061;-74
2023/02/16 07:49:04;;;;;;;74.35;66.32;;;6.40;99.90;;;;;;5011812;28;20037;-73
2023/02/16 07:51:33;;;;;;;72.10;63.83;;;6.40;99.90;;;;;;5018256;28;20116;-73
2023/02/16 07:54:00;;;;;;;71.72;63.67;;;6.50;99.90;;;;;;5005194;28;20120;-73
2023/02/16 07:56:28;;;;;;;72.75;64.85;;;6.50;99.90;;;;;;5011101;28;20492;-73
2023/02/16 07:58:56;;;;;;;70.40;62.63;;;6.50;99.90;;;;;;5017153;28;20033;-73
2023/02/16 08:01:22;;;;;;;70.95;63.20;;;6.50;99.90;;;;;;5012543;28;20128;-73
2023/02/16 08:03:48;;;;;;;71.07;63.40;;;6.60;99.90;;;;;;5007049;28;20160;-73
2023/02/16 08:06:15;;;;;;;72.80;64.95;;;6.60;99.90;;;;;;5007720;28;20057;-73
2023/02/16 08:08:46;;;;;;;74.22;66.15;;;6.60;99.90;;;;;;5003801;28;20034;-73
2023/02/16 08:11:15;;;;;;;71.22;63.65;;;6.60;99.90;;;;;;5007343;28;20042;-73
2023/02/16 08:13:41;;;;;;;77.45;68.22;;;6.60;99.90;;;;;;5005600;28;20053;-73
2023/02/16 08:16:12;;;;;;;76.30;68.00;;;6.60;99.90;;;;;;5014866;28;20389;-74
2023/02/16 08:18:40;;;;;;;71.32;63.30;;;6.60;99.90;;;;;;5010973;28;20447;-73
2023/02/16 08:21:15;;;;;;;76.40;68.32;;;6.60;99.90;;;;;;5011066;28;20049;-74
2023/02/16 08:23:47;;;;;;;75.85;67.68;;;6.60;99.90;;;;;;5003958;28;20037;-73
2023/02/16 08:26:16;;;;;;;71.85;64.15;;;6.60;99.90;;;;;;5006942;28;20045;-73
2023/02/16 08:28:46;;;;;;;77.07;68.28;;;6.60;99.90;;;;;;5007163;28;20132;-73
2023/02/16 08:31:17;;;;;;;73.80;65.53;;;6.60;99.90;;;;;;5004847;28;20041;-73
2023/02/16 08:33:44;;;;;;;80.63;71.95;;;6.60;99.90;;;;;;5004493;28;20508;-74
2023/02/16 08:36:17;;;;;;;78.43;69.95;;;6.60;99.90;;;;;;5005372;28;20042;-73
2023/02/16 08:38:43;;;;;;;77.10;67.30;;;6.60;99.90;;;;;;5007241;28;20120;-73
2023/02/16 08:41:09;;;;;;;78.05;69.47;;;6.60;99.90;;;;;;5011583;28;20137;-74
2023/02/16 08:43:35;;;;;;;80.72;71.97;;;6.60;99.90;;;;;;5007752;28;20592;-74
2023/02/16 08:46:01;;;;;;;81.32;72.57;;;6.60;99.90;;;;;;5016424;28;20045;-73
2023/02/16 08:48:27;;;;;;;83.88;72.35;;;6.60;99.90;;;;;;5015265;28;20048;-74
2023/02/16 08:50:53;;;;;;;78.90;70.30;;;6.60;99.90;;;;;;5003719;28;20169;-73
2023/02/16 08:53:21;;;;;;;78.72;70.03;;;6.50;99.90;;;;;;5012095;28;20042;-73
2023/02/16 08:55:53;;;;;;;74.85;66.45;;;6.60;99.90;;;;;;5003209;28;20377;-73
2023/02/16 08:58:18;;;;;;;80.32;71.63;;;6.70;99.90;;;;;;5009383;28;20045;-72
2023/02/16 09:00:45;;;;;;;79.82;71.20;;;6.70;99.90;;;;;;5013270;28;20273;-73
2023/02/16 09:03:12;;;;;;;79.70;71.05;;;6.70;99.90;;;;;;5003130;28;20592;-73
2023/02/16 09:05:39;;;;;;;80.65;71.82;;;6.70;99.90;;;;;;5010987;28;20046;-73
2023/02/16 09:08:05;;;;;;;81.50;72.63;;;6.70;99.90;;;;;;5014632;28;20048;-73
2023/02/16 09:10:31;;;;;;;76.63;68.07;;;6.80;99.90;;;;;;5004972;28;20046;-73
2023/02/16 09:12:57;;;;;;;78.82;70.18;;;6.80;99.90;;;;;;5012138;28;20053;-72
2023/02/16 09:15:23;;;;;;;77.35;68.65;;;6.80;99.90;;;;;;5011038;28;20041;-72
2023/02/16 09:17:49;;;;;;;78.75;69.60;;;6.80;99.90;;;;;;5001110;28;20038;-72
2023/02/16 09:20:15;;;;;;;75.97;67.75;;;6.80;99.90;;;;;;5008006;28;20061;-73
2023/02/16 09:22:45;;;;;;;74.68;66.45;;;6.80;99.90;;;;;;5007331;28;20030;-72
2023/02/16 09:25:12;;;;;;;77.60;68.38;;;6.80;99.90;;;;;;5017374;28;20087;-73
2023/02/16 09:27:38;;;;;;;75.82;67.68;;;6.80;99.90;;;;;;5011976;28;20117;-73
2023/02/16 09:30:05;;;;;;;77.00;68.70;;;6.90;99.90;;;;;;5017352;28;20046;-73
2023/02/16 09:32:31;;;;;;;74.90;66.63;;;6.90;99.90;;;;;;5003490;28;20580;-73
2023/02/16 09:34:56;;;;;;;76.25;67.88;;;6.90;99.90;;;;;;5008618;28;20156;-73
2023/02/16 09:37:22;;;;;;;75.45;67.18;;;6.90;99.90;;;;;;5012402;28;20143;-73
2023/02/16 09:39:48;;;;;;;78.07;69.78;;;7.00;99.90;;;;;;5016229;28;20452;-73
2023/02/16 09:42:23;;;;;;;74.32;66.22;;;7.00;99.90;;;;;;5017245;28;21149;-75
2023/02/16 09:45:08;;;;;;;77.03;67.75;;;7.00;99.90;;;;;;5013573;28;20063;-72
2023/02/16 09:47:39;;;;;;;75.00;66.40;;;7.00;99.90;;;;;;5010246;28;20559;-75
2023/02/16 09:50:22;;;;;;;76.25;67.90;;;7.10;99.90;;;;;;5008350;28;20049;-73
2023/02/16 09:52:59;;;;;;;76.85;68.45;;;7.10;99.90;;;;;;5009391;28;20435;-73
2023/02/16 09:55:36;;;;;;;75.03;66.95;;;7.10;99.90;;;;;;5007643;28;20077;-71
2023/02/16 09:58:18;;;;;;;78.03;69.68;;;7.10;99.90;;;;;;5008506;28;20053;-73
2023/02/16 10:00:52;;;;;;;77.53;69.00;;;7.10;99.90;;;;;;5007342;28;20416;-73
2023/02/16 10:03:44;;;;;;;76.75;68.50;;;7.10;99.90;;;;;;5015454;28;20335;-72
2023/02/16 10:06:13;;;;;;;83.32;73.68;;;7.10;99.90;;;;;;5018445;28;20051;-73
2023/02/16 10:08:49;;;;;;;81.38;72.53;;;7.10;99.90;;;;;;5022829;28;20125;-73
2023/02/16 10:11:37;;;;;;;82.53;73.78;;;7.20;99.90;;;;;;5010689;28;20084;-74
2023/02/16 10:14:12;;;;;;;85.65;76.50;;;7.20;99.90;;;;;;5019192;28;20045;-73
2023/02/16 10:16:49;;;;;;;91.13;79.45;;;7.30;99.90;;;;;;5017951;28;20038;-73
2023/02/16 10:19:51;;;;;;;87.75;76.65;;;7.30;99.90;;;;;;5022662;28;20048;-73
2023/02/16 10:22:26;;;;;;;87.50;77.95;;;7.30;99.90;;;;;;5016873;28;20099;-74
2023/02/16 10:25:27;;;;;;;88.88;78.05;;;7.40;99.90;;;;;;5012891;28;20038;-73
2023/02/16 10:28:17;;;;;;;93.30;79.53;;;7.40;99.90;;;;;;5012457;28;20049;-74
2023/02/16 10:31:04;;;;;;;86.18;76.97;;;7.50;99.90;;;;;;5019773;28;20084;-73
2023/02/16 10:33:44;;;;;;;96.32;83.28;;;7.50;99.90;;;;;;5006557;28;20046;-73
2023/02/16 10:36:38;;;;;;;85.80;76.47;;;7.50;99.90;;;;;;5014393;28;20443;-73
2023/02/16 10:39:44;;;;;;;94.47;83.10;;;7.50;99.90;;;;;;5007485;28;20049;-73
2023/02/16 10:42:33;;;;;;;89.30;79.50;;;7.60;99.90;;;;;;5015414;28;20108;-74
2023/02/16 10:45:17;;;;;;;94.28;83.88;;;7.60;99.90;;;;;;5018536;28;20084;-73
2023/02/16 10:47:46;;;;;;;87.57;78.00;;;7.60;99.90;;;;;;5016584;28;20567;-73
2023/02/16 10:50:26;;;;;;;99.50;83.95;;;7.60;99.90;;;;;;5019611;28;20535;-74
2023/02/16 10:52:57;;;;;;;88.93;79.20;;;7.60;99.90;;;;;;5015196;28;20042;-73
2023/02/16 10:55:23;;;;;;;91.95;80.53;;;7.60;99.90;;;;;;5016727;28;20145;-73
2023/02/16 10:58:01;;;;;;;94.05;82.97;;;7.60;99.90;;;;;;5013123;28;20236;-73
2023/02/16 11:00:51;;;;;;;96.25;82.43;;;7.50;99.90;;;;;;5018463;28;20041;-73
2023/02/16 11:03:19;;;;;;;;;;;7.60;99.90;;;;;;5031508;28;20614;-74
2023/02/16 11:05:45;;;;;;;97.20;84.53;;;7.50;99.90;;;;;;5010691;28;20259;-74
2023/02/16 11:08:12;;;;;;;99.95;87.10;;;7.50;99.90;;;;;;5017743;28;20045;-74
2023/02/16 11:10:50;;;;;;;101.35;88.72;;;7.60;99.90;;;;;;5015288;28;20064;-74
2023/02/16 11:13:27;;;;;;;102.35;86.65;;;7.60;99.90;;;;;;5014523;28;20053;-74
2023/02/16 11:15:59;;;;;;;109.05;90.60;;;7.70;99.90;;;;;;5014640;28;20050;-74
2023/02/16 11:18:30;;;;;;;101.82;85.80;;;7.70;99.90;;;;;;5020748;28;20103;-74
2023/02/16 11:20:57;;;;;;;101.15;87.05;;;7.80;99.90;;;;;;5014204;28;20045;-73
2023/02/16 11:23:34;;;;;;;99.80;88.88;;;7.80;99.90;;;;;;5018347;28;20045;-73
2023/02/16 11:26:05;;;;;;;103.47;89.57;;;7.80;99.90;;;;;;5018769;28;20508;-74
2023/02/16 11:28:37;;;;;;;101.28;86.97;;;7.90;99.90;;;;;;5017693;28;20223;-73
2023/02/16 11:31:17;;;;;;;100.80;87.25;;;7.90;99.90;;;;;;5014352;28;20041;-73
2023/02/16 11:34:02;;;;;;;103.05;88.50;;;7.90;99.90;;;;;;5008265;28;20089;-74
2023/02/16 11:36:37;;;;;;;99.32;87.38;;;7.90;99.90;;;;;;5010151;28;20056;-74
2023/02/16 11:39:31;;;;;;;95.25;84.80;;;7.90;99.90;;;;;;5013781;28;20096;-73
2023/02/16 11:42:01;;;;;;;102.18;89.00;;;7.90;99.90;;;;;;5011725;28;20041;-74
2023/02/16 11:44:33;;;;;;;98.80;88.07;;;8.00;99.90;;;;;;5015024;28;20045;-73
2023/02/16 11:47:02;;;;;;;101.53;85.35;;;8.00;99.90;;;;;;5018926;28;21018;-74
2023/02/16 11:49:37;;;;;;;100.35;87.65;;;8.00;99.90;;;;;;5021551;28;20081;-74
2023/02/16 11:52:26;;;;;;;99.22;85.93;;;8.00;99.90;;;;;;5014001;28;20057;-74
2023/02/16 11:54:59;;;;;;;95.80;83.85;;;8.00;99.90;;;;;;5016175;28;20061;-74
2023/02/16 11:57:31;;;;;;;97.15;83.90;;;8.00;99.90;;;;;;5017681;28;20038;-75
2023/02/16 11:59:59;;;;;;;96.93;84.72;;;8.10;99.90;;;;;;5017582;28;20477;-72
2023/02/16 12:02:39;;;;;;;96.75;86.03;;;8.10;99.90;;;;;;5019174;28;20724;-73
2023/02/16 12:05:22;;;;;;;94.53;82.97;;;8.10;99.90;;;;;;5010833;28;20544;-73
2023/02/16 12:07:51;;;;;;;104.40;87.97;;;8.10;99.90;;;;;;5007034;28;20508;-73
2023/02/16 12:10:37;;;;;;;98.57;86.90;;;8.20;99.90;;;;;;5016095;28;20045;-73
2023/02/16 12:13:07;;;;;;;97.85;84.63;;;8.30;99.90;;;;;;5012898;28;20034;-73
2023/02/16 12:15:36;;;;;;;;;;;8.30;99.90;;;;;;5016598;28;20053;-73
2023/02/16 12:18:39;;;;;;;96.90;84.32;;;8.30;99.90;;;;;;5012880;28;19931;-73
2023/02/16 12:21:20;;;;;;;94.95;82.43;;;8.40;99.90;;;;;;5008733;28;20084;-73
2023/02/16 12:24:08;;;;;;;96.90;86.35;;;8.40;99.90;;;;;;5015071;28;20054;-73
2023/02/16 12:26:46;;;;;;;102.55;90.03;;;8.50;99.90;;;;;;5013361;28;20049;-72
2023/02/16 12:29:31;;;;;;;95.00;83.93;;;8.60;99.90;;;;;;5014393;28;20048;-72
2023/02/16 12:32:18;;;;;;;93.78;83.45;;;8.80;99.90;;;;;;5010844;28;20073;-73
2023/02/16 12:34:49;;;;;;;92.18;82.13;;;8.90;99.90;;;;;;5011812;28;20052;-75
2023/02/16 12:37:43;;;;;;;89.78;80.15;;;9.00;99.90;;;;;;5013215;28;20033;-74
2023/02/16 12:40:33;;;;;;;88.90;77.55;;;9.10;99.90;;;;;;5016355;28;20065;-74
2023/02/16 12:43:20;;;;;;;87.18;77.43;;;9.10;99.90;;;;;;5020006;28;20388;-74
2023/02/16 12:45:46;;;;;;;83.78;74.78;;;9.20;99.90;;;;;;5010781;28;20050;-75
2023/02/16 12:48:39;;;;;;;85.90;76.70;;;9.20;99.90;;;;;;5017376;28;20120;-76
2023/02/16 12:51:24;;;;;;;77.53;69.05;;;9.40;99.90;;;;;;5016622;28;20038;-76
2023/02/16 12:54:03;;;;;;;78.38;70.15;;;9.50;99.90;;;;;;5021721;28;20038;-76
2023/02/16 12:56:37;;;;;;;74.80;66.57;;;9.50;99.90;;;;;;5018870;28;20045;-73
2023/02/16 12:59:21;;;;;;;75.15;67.20;;;9.50;99.90;;;;;;5020328;28;20527;-75
2023/02/16 13:01:51;;;;;;;69.60;62.05;;;9.60;99.90;;;;;;5021098;28;20038;-75
2023/02/16 13:04:57;;;;;;;69.13;62.03;;;9.60;99.90;;;;;;5016562;28;20519;-75
2023/02/16 13:07:34;;;;;;;69.05;61.83;;;9.70;99.90;;;;;;4939407;28;20178;-75
2023/02/16 13:10:27;;;;;;;69.47;62.05;;;9.70;99.90;;;;;;4935792;28;20514;-73
2023/02/16 13:12:59;;;;;;;68.07;60.72;;;9.80;99.90;;;;;;4997104;28;20049;-73
2023/02/16 13:15:36;;;;;;;65.72;58.80;;;9.90;99.90;;;;;;5016855;28;20046;-73
2023/02/16 13:18:30;;;;;;;62.63;56.03;;;9.90;99.90;;;;;;5017020;28;20394;-74
2023/02/16 13:21:07;;;;;;;63.33;56.53;;;9.90;99.90;;;;;;5013405;28;20076;-74
2023/02/16 13:23:44;;;;;;;58.65;52.10;;;10.00;99.90;;;;;;5022218;28;20045;-74
2023/02/16 13:26:47;;;;;;;55.33;49.63;;;10.00;99.90;;;;;;5021254;28;20037;-73
2023/02/16 13:29:26;;;;;;;57.05;51.08;;;10.10;99.90;;;;;;5016868;28;20508;-74
2023/02/16 13:32:05;;;;;;;61.00;54.38;;;10.10;99.90;;;;;;5023922;28;20676;-74
2023/02/16 13:34:49;;;;;;;60.60;54.42;;;10.10;99.90;;;;;;5019584;28;20046;-74
2023/02/16 13:37:57;;;;;;;62.45;55.97;;;10.10;99.90;;;;;;5030274;28;20601;-74
2023/02/16 13:40:36;;;;;;;63.00;56.25;;;10.20;99.90;;;;;;5024780;28;20077;-74
2023/02/16 13:43:22;;;;;;;59.28;53.05;;;10.20;99.90;;;;;;5014075;28;20049;-74